sensor_id;sensor_type;location;lat;lon;timestamp;temperature;humidity
23259;DHT22;11798;51.528;7.240;2023-02-14T00:01:09;3.60;99.90
23259;DHT22;11798;51.528;7.240;2023-02-14T00:03:35;3.60;99.90
23259;DHT22;11798;51.528;7.240;2023-02-14T00:06:09;3.50;99.90
23259;DHT22;11798;51.528;7.240;2023-02-14T00:08:35;3.50;99.90
23259;DHT22;11798;51.528;7.240;2023-02-14T00:11:01;3.50;99.90
23259;DHT22;11798;51.528;7.240;2023-02-14T00:13:27;3.50;99.90
23259;DHT22;11798;51.528;7.240;2023-02-14T00:15:54;3.50;99.90
23259;DHT22;11798;51.528;7.240;2023-02-14T00:18:20;3.50;99.90
23259;DHT22;11798;51.528;7.240;2023-02-14T00:20:45;3.40;99.90
23259;DHT22;11798;51.528;7.240;2023-02-14T00:23:11;3.50;99.90
23259;DHT22;11798;51.528;7.240;2023-02-14T00:25:36;3.50;99.90
23259;DHT22;11798;51.528;7.240;2023-02-14T00:28:02;3.50;99.90
23259;DHT22;11798;51.528;7.240;2023-02-14T00:30:28;3.50;99.90
23259;DHT22;11798;51.528;7.240;2023-02-14T00:32:53;3.60;99.90
23259;DHT22;11798;51.528;7.240;2023-02-14T00:35:19;3.60;99.90
23259;DHT22;11798;51.528;7.240;2023-02-14T00:37:45;3.60;99.90
23259;DHT22;11798;51.528;7.240;2023-02-14T00:40:12;3.70;99.90
23259;DHT22;11798;51.528;7.240;2023-02-14T00:42:38;3.80;99.90
23259;DHT22;11798;51.528;7.240;2023-02-14T00:45:04;3.90;99.90
23259;DHT22;11798;51.528;7.240;2023-02-14T00:47:30;3.90;99.90
23259;DHT22;11798;51.528;7.240;2023-02-14T00:49:55;4.10;99.90
23259;DHT22;11798;51.528;7.240;2023-02-14T00:52:28;4.20;99.90
23259;DHT22;11798;51.528;7.240;2023-02-14T00:54:54;4.30;99.90
23259;DHT22;11798;51.528;7.240;2023-02-14T00:57:20;4.60;99.90
23259;DHT22;11798;51.528;7.240;2023-02-14T00:59:46;4.60;99.90
23259;DHT22;11798;51.528;7.240;2023-02-14T01:02:11;4.70;99.90
23259;DHT22;11798;51.528;7.240;2023-02-14T01:04:37;4.70;99.90
23259;DHT22;11798;51.528;7.240;2023-02-14T01:07:03;4.80;99.90
23259;DHT22;11798;51.528;7.240;2023-02-14T01:09:28;4.90;99.90
23259;DHT22;11798;51.528;7.240;2023-02-14T01:11:54;4.90;99.90
23259;DHT22;11798;51.528;7.240;2023-02-14T01:14:20;5.00;99.90
23259;DHT22;11798;51.528;7.240;2023-02-14T01:16:46;5.10;99.90
23259;DHT22;11798;51.528;7.240;2023-02-14T01:19:11;5.10;99.90
23259;DHT22;11798;51.528;7.240;2023-02-14T01:21:37;5.20;99.90
23259;DHT22;11798;51.528;7.240;2023-02-14T01:24:05;5.20;99.90
23259;DHT22;11798;51.528;7.240;2023-02-14T01:26:31;5.40;99.90
23259;DHT22;11798;51.528;7.240;2023-02-14T01:28:57;5.40;99.90
23259;DHT22;11798;51.528;7.240;2023-02-14T01:31:26;5.50;99.90
23259;DHT22;11798;51.528;7.240;2023-02-14T01:33:52;5.50;99.90
23259;DHT22;11798;51.528;7.240;2023-02-14T01:36:38;5.40;99.90
23259;DHT22;11798;51.528;7.240;2023-02-14T01:39:07;5.50;99.90
23259;DHT22;11798;51.528;7.240;2023-02-14T01:41:35;5.50;99.90
23259;DHT22;11798;51.528;7.240;2023-02-14T01:46:29;5.50;99.90
23259;DHT22;11798;51.528;7.240;2023-02-14T01:49:20;5.50;99.90
23259;DHT22;11798;51.528;7.240;2023-02-14T01:54:17;5.50;99.90
23259;DHT22;11798;51.528;7.240;2023-02-14T01:56:47;5.50;99.90
23259;DHT22;11798;51.528;7.240;2023-02-14T01:59:17;5.60;99.90
23259;DHT22;11798;51.528;7.240;2023-02-14T02:01:45;5.50;99.90
23259;DHT22;11798;51.528;7.240;2023-02-14T02:04:15;5.50;99.90
23259;DHT22;11798;51.528;7.240;2023-02-14T02:06:57;5.50;99.90
23259;DHT22;11798;51.528;7.240;2023-02-14T02:09:33;5.50;99.90
23259;DHT22;11798;51.528;7.240;2023-02-14T02:12:00;5.50;99.90
23259;DHT22;11798;51.528;7.240;2023-02-14T02:14:28;5.40;99.90
23259;DHT22;11798;51.528;7.240;2023-02-14T02:39:39;4.50;99.90
23259;DHT22;11798;51.528;7.240;2023-02-14T02:47:39;4.40;99.90
23259;DHT22;11798;51.528;7.240;2023-02-14T02:58:49;4.10;99.90
23259;DHT22;11798;51.528;7.240;2023-02-14T03:01:27;4.10;99.90
23259;DHT22;11798;51.528;7.240;2023-02-14T03:03:58;4.00;99.90
23259;DHT22;11798;51.528;7.240;2023-02-14T03:06:46;3.90;99.90
23259;DHT22;11798;51.528;7.240;2023-02-14T03:09:47;3.90;99.90
23259;DHT22;11798;51.528;7.240;2023-02-14T03:14:54;3.70;99.90
23259;DHT22;11798;51.528;7.240;2023-02-14T03:20:52;3.50;99.90
23259;DHT22;11798;51.528;7.240;2023-02-14T03:23:28;3.50;99.90
23259;DHT22;11798;51.528;7.240;2023-02-14T03:28:54;3.40;99.90
23259;DHT22;11798;51.528;7.240;2023-02-14T03:42:14;3.30;99.90
23259;DHT22;11798;51.528;7.240;2023-02-14T03:44:43;3.30;99.90
23259;DHT22;11798;51.528;7.240;2023-02-14T03:47:16;3.30;99.90
23259;DHT22;11798;51.528;7.240;2023-02-14T03:49:49;3.20;99.90
23259;DHT22;11798;51.528;7.240;2023-02-14T03:52:17;3.20;99.90
23259;DHT22;11798;51.528;7.240;2023-02-14T03:54:45;3.20;99.90
23259;DHT22;11798;51.528;7.240;2023-02-14T03:57:18;3.20;99.90
23259;DHT22;11798;51.528;7.240;2023-02-14T03:59:45;3.20;99.90
23259;DHT22;11798;51.528;7.240;2023-02-14T04:02:20;3.10;99.90
23259;DHT22;11798;51.528;7.240;2023-02-14T04:04:50;3.10;99.90
23259;DHT22;11798;51.528;7.240;2023-02-14T04:07:19;3.10;99.90
23259;DHT22;11798;51.528;7.240;2023-02-14T04:09:45;3.10;99.90
23259;DHT22;11798;51.528;7.240;2023-02-14T04:12:12;3.00;99.90
23259;DHT22;11798;51.528;7.240;2023-02-14T04:14:38;3.00;99.90
23259;DHT22;11798;51.528;7.240;2023-02-14T04:17:05;2.90;99.90
23259;DHT22;11798;51.528;7.240;2023-02-14T04:19:49;2.80;99.90
23259;DHT22;11798;51.528;7.240;2023-02-14T04:22:15;2.70;99.90
23259;DHT22;11798;51.528;7.240;2023-02-14T04:24:40;2.70;99.90
23259;DHT22;11798;51.528;7.240;2023-02-14T04:27:06;2.80;99.90
23259;DHT22;11798;51.528;7.240;2023-02-14T04:29:36;2.80;99.90
23259;DHT22;11798;51.528;7.240;2023-02-14T04:32:04;2.90;99.90
23259;DHT22;11798;51.528;7.240;2023-02-14T04:34:30;2.90;99.90
23259;DHT22;11798;51.528;7.240;2023-02-14T04:36:55;2.80;99.90
23259;DHT22;11798;51.528;7.240;2023-02-14T04:39:21;2.80;99.90
23259;DHT22;11798;51.528;7.240;2023-02-14T04:41:47;2.70;99.90
23259;DHT22;11798;51.528;7.240;2023-02-14T04:44:12;2.60;99.90
23259;DHT22;11798;51.528;7.240;2023-02-14T04:46:38;2.60;99.90
23259;DHT22;11798;51.528;7.240;2023-02-14T04:49:03;2.70;99.90
23259;DHT22;11798;51.528;7.240;2023-02-14T04:51:29;2.70;99.90
23259;DHT22;11798;51.528;7.240;2023-02-14T04:53:54;2.70;99.90
23259;DHT22;11798;51.528;7.240;2023-02-14T04:56:20;2.70;99.90
23259;DHT22;11798;51.528;7.240;2023-02-14T04:58:46;2.70;99.90
23259;DHT22;11798;51.528;7.240;2023-02-14T05:01:11;2.60;99.90
23259;DHT22;11798;51.528;7.240;2023-02-14T05:03:37;2.60;99.90
23259;DHT22;11798;51.528;7.240;2023-02-14T05:06:03;2.60;99.90
23259;DHT22;11798;51.528;7.240;2023-02-14T05:08:28;2.60;99.90
23259;DHT22;11798;51.528;7.240;2023-02-14T05:10:54;2.60;99.90
23259;DHT22;11798;51.528;7.240;2023-02-14T05:13:20;2.60;99.90
23259;DHT22;11798;51.528;7.240;2023-02-14T05:15:45;2.60;99.90
23259;DHT22;11798;51.528;7.240;2023-02-14T05:18:11;2.50;99.90
23259;DHT22;11798;51.528;7.240;2023-02-14T05:20:36;2.50;99.90
23259;DHT22;11798;51.528;7.240;2023-02-14T05:23:02;2.50;99.90
23259;DHT22;11798;51.528;7.240;2023-02-14T05:25:30;2.50;99.90
23259;DHT22;11798;51.528;7.240;2023-02-14T05:27:56;2.60;99.90
23259;DHT22;11798;51.528;7.240;2023-02-14T05:30:22;2.60;99.90
23259;DHT22;11798;51.528;7.240;2023-02-14T05:32:52;2.60;99.90
23259;DHT22;11798;51.528;7.240;2023-02-14T05:35:18;2.60;99.90
23259;DHT22;11798;51.528;7.240;2023-02-14T05:37:43;2.50;99.90
23259;DHT22;11798;51.528;7.240;2023-02-14T05:40:09;2.50;99.90
23259;DHT22;11798;51.528;7.240;2023-02-14T05:42:38;2.50;99.90
23259;DHT22;11798;51.528;7.240;2023-02-14T05:45:04;2.50;99.90
23259;DHT22;11798;51.528;7.240;2023-02-14T05:47:31;2.50;99.90
23259;DHT22;11798;51.528;7.240;2023-02-14T05:49:56;2.50;99.90
23259;DHT22;11798;51.528;7.240;2023-02-14T05:52:22;2.40;99.90
23259;DHT22;11798;51.528;7.240;2023-02-14T05:54:48;2.40;99.90
23259;DHT22;11798;51.528;7.240;2023-02-14T05:57:14;2.50;99.90
23259;DHT22;11798;51.528;7.240;2023-02-14T05:59:39;2.40;99.90
23259;DHT22;11798;51.528;7.240;2023-02-14T06:02:05;2.40;99.90
23259;DHT22;11798;51.528;7.240;2023-02-14T06:04:31;2.40;99.90
23259;DHT22;11798;51.528;7.240;2023-02-14T06:06:56;2.40;99.90
23259;DHT22;11798;51.528;7.240;2023-02-14T06:09:22;2.40;99.90
23259;DHT22;11798;51.528;7.240;2023-02-14T06:11:48;2.40;99.90
23259;DHT22;11798;51.528;7.240;2023-02-14T06:14:13;2.40;99.90
23259;DHT22;11798;51.528;7.240;2023-02-14T06:16:39;2.40;99.90
23259;DHT22;11798;51.528;7.240;2023-02-14T06:19:05;2.40;99.90
23259;DHT22;11798;51.528;7.240;2023-02-14T06:21:30;2.40;99.90
23259;DHT22;11798;51.528;7.240;2023-02-14T06:23:56;2.40;99.90
23259;DHT22;11798;51.528;7.240;2023-02-14T06:26:22;2.40;99.90
23259;DHT22;11798;51.528;7.240;2023-02-14T06:28:56;2.30;99.90
23259;DHT22;11798;51.528;7.240;2023-02-14T06:31:22;2.30;99.90
23259;DHT22;11798;51.528;7.240;2023-02-14T06:33:48;2.40;99.90
23259;DHT22;11798;51.528;7.240;2023-02-14T06:36:13;2.30;99.90
23259;DHT22;11798;51.528;7.240;2023-02-14T06:38:39;2.30;99.90
23259;DHT22;11798;51.528;7.240;2023-02-14T06:41:07;2.20;99.90
23259;DHT22;11798;51.528;7.240;2023-02-14T06:43:33;2.20;99.90
23259;DHT22;11798;51.528;7.240;2023-02-14T06:45:59;2.20;99.90
23259;DHT22;11798;51.528;7.240;2023-02-14T06:48:25;2.20;99.90
23259;DHT22;11798;51.528;7.240;2023-02-14T06:50:51;2.20;99.90
23259;DHT22;11798;51.528;7.240;2023-02-14T06:53:17;2.20;99.90
23259;DHT22;11798;51.528;7.240;2023-02-14T06:55:43;2.20;99.90
23259;DHT22;11798;51.528;7.240;2023-02-14T06:58:09;2.20;99.90
23259;DHT22;11798;51.528;7.240;2023-02-14T07:00:34;2.30;99.90
23259;DHT22;11798;51.528;7.240;2023-02-14T07:03:00;2.30;99.90
23259;DHT22;11798;51.528;7.240;2023-02-14T07:05:25;2.30;99.90
23259;DHT22;11798;51.528;7.240;2023-02-14T07:07:51;2.30;99.90
23259;DHT22;11798;51.528;7.240;2023-02-14T07:10:17;2.30;99.90
23259;DHT22;11798;51.528;7.240;2023-02-14T07:12:42;2.30;99.90
23259;DHT22;11798;51.528;7.240;2023-02-14T07:15:10;2.30;99.90
23259;DHT22;11798;51.528;7.240;2023-02-14T07:17:36;2.30;99.90
23259;DHT22;11798;51.528;7.240;2023-02-14T07:20:03;2.40;99.90
23259;DHT22;11798;51.528;7.240;2023-02-14T07:22:31;2.40;99.90
23259;DHT22;11798;51.528;7.240;2023-02-14T07:24:56;2.40;99.90
23259;DHT22;11798;51.528;7.240;2023-02-14T07:27:22;2.50;99.90
23259;DHT22;11798;51.528;7.240;2023-02-14T07:29:48;2.60;99.90
23259;DHT22;11798;51.528;7.240;2023-02-14T07:32:13;2.60;99.90
23259;DHT22;11798;51.528;7.240;2023-02-14T07:34:39;2.60;99.90
23259;DHT22;11798;51.528;7.240;2023-02-14T07:37:04;2.70;99.90
23259;DHT22;11798;51.528;7.240;2023-02-14T07:39:30;2.70;99.90
23259;DHT22;11798;51.528;7.240;2023-02-14T07:41:56;2.80;99.90
23259;DHT22;11798;51.528;7.240;2023-02-14T07:44:21;2.80;99.90
23259;DHT22;11798;51.528;7.240;2023-02-14T07:46:47;2.90;99.90
23259;DHT22;11798;51.528;7.240;2023-02-14T07:49:12;2.90;99.90
23259;DHT22;11798;51.528;7.240;2023-02-14T07:51:38;3.00;99.90
23259;DHT22;11798;51.528;7.240;2023-02-14T07:54:04;3.00;99.90
23259;DHT22;11798;51.528;7.240;2023-02-14T07:56:29;3.10;99.90
23259;DHT22;11798;51.528;7.240;2023-02-14T07:58:55;3.10;99.90
23259;DHT22;11798;51.528;7.240;2023-02-14T08:01:20;3.20;99.90
23259;DHT22;11798;51.528;7.240;2023-02-14T08:03:46;3.20;99.90
23259;DHT22;11798;51.528;7.240;2023-02-14T08:06:16;3.30;99.90
23259;DHT22;11798;51.528;7.240;2023-02-14T08:08:42;3.40;99.90
23259;DHT22;11798;51.528;7.240;2023-02-14T08:11:07;3.40;99.90
23259;DHT22;11798;51.528;7.240;2023-02-14T08:13:33;3.50;99.90
23259;DHT22;11798;51.528;7.240;2023-02-14T08:15:58;3.50;99.90
23259;DHT22;11798;51.528;7.240;2023-02-14T08:18:40;3.60;99.90
23259;DHT22;11798;51.528;7.240;2023-02-14T08:21:08;3.60;99.90
23259;DHT22;11798;51.528;7.240;2023-02-14T08:23:34;3.70;99.90
23259;DHT22;11798;51.528;7.240;2023-02-14T08:26:00;3.70;99.90
23259;DHT22;11798;51.528;7.240;2023-02-14T08:28:26;3.80;99.90
23259;DHT22;11798;51.528;7.240;2023-02-14T08:30:52;3.90;99.90
23259;DHT22;11798;51.528;7.240;2023-02-14T08:33:18;4.00;99.90
23259;DHT22;11798;51.528;7.240;2023-02-14T08:35:43;4.10;99.90
23259;DHT22;11798;51.528;7.240;2023-02-14T08:38:09;4.10;99.90
23259;DHT22;11798;51.528;7.240;2023-02-14T08:40:35;4.20;99.90
23259;DHT22;11798;51.528;7.240;2023-02-14T08:43:03;4.30;99.90
23259;DHT22;11798;51.528;7.240;2023-02-14T08:45:28;4.50;99.90
23259;DHT22;11798;51.528;7.240;2023-02-14T08:47:59;4.70;99.90
23259;DHT22;11798;51.528;7.240;2023-02-14T08:50:25;4.80;99.90
23259;DHT22;11798;51.528;7.240;2023-02-14T08:52:51;4.90;99.90
23259;DHT22;11798;51.528;7.240;2023-02-14T08:55:16;5.10;99.90
23259;DHT22;11798;51.528;7.240;2023-02-14T08:57:42;5.20;99.90
23259;DHT22;11798;51.528;7.240;2023-02-14T09:00:08;5.40;99.90
23259;DHT22;11798;51.528;7.240;2023-02-14T09:02:34;5.50;99.90
23259;DHT22;11798;51.528;7.240;2023-02-14T09:05:00;5.70;99.90
23259;DHT22;11798;51.528;7.240;2023-02-14T09:07:26;5.80;99.90
23259;DHT22;11798;51.528;7.240;2023-02-14T09:09:51;5.90;99.90
23259;DHT22;11798;51.528;7.240;2023-02-14T09:12:17;6.10;99.90
23259;DHT22;11798;51.528;7.240;2023-02-14T09:14:43;6.20;99.90
23259;DHT22;11798;51.528;7.240;2023-02-14T09:17:13;6.30;99.90
23259;DHT22;11798;51.528;7.240;2023-02-14T09:19:40;6.40;99.90
23259;DHT22;11798;51.528;7.240;2023-02-14T09:22:07;6.60;99.90
23259;DHT22;11798;51.528;7.240;2023-02-14T09:24:34;6.70;99.90
23259;DHT22;11798;51.528;7.240;2023-02-14T09:27:01;6.90;99.90
23259;DHT22;11798;51.528;7.240;2023-02-14T09:29:27;7.00;99.90
23259;DHT22;11798;51.528;7.240;2023-02-14T09:31:55;7.10;99.90
23259;DHT22;11798;51.528;7.240;2023-02-14T09:34:21;7.30;99.90
23259;DHT22;11798;51.528;7.240;2023-02-14T09:36:47;7.50;99.90
23259;DHT22;11798;51.528;7.240;2023-02-14T09:39:12;7.50;99.90
23259;DHT22;11798;51.528;7.240;2023-02-14T09:47:21;7.90;99.90
23259;DHT22;11798;51.528;7.240;2023-02-14T09:49:48;8.00;99.90
23259;DHT22;11798;51.528;7.240;2023-02-14T09:52:17;8.10;99.90
23259;DHT22;11798;51.528;7.240;2023-02-14T09:54:50;8.20;99.90
23259;DHT22;11798;51.528;7.240;2023-02-14T09:57:35;8.30;99.90
23259;DHT22;11798;51.528;7.240;2023-02-14T10:05:18;8.60;99.90
23259;DHT22;11798;51.528;7.240;2023-02-14T10:10:30;8.80;99.90
23259;DHT22;11798;51.528;7.240;2023-02-14T10:13:03;8.90;99.90
23259;DHT22;11798;51.528;7.240;2023-02-14T10:15:37;8.90;99.90
23259;DHT22;11798;51.528;7.240;2023-02-14T10:18:24;9.00;99.90
23259;DHT22;11798;51.528;7.240;2023-02-14T10:20:54;9.10;99.90
23259;DHT22;11798;51.528;7.240;2023-02-14T10:28:57;9.30;99.90
23259;DHT22;11798;51.528;7.240;2023-02-14T10:50:42;9.90;99.90
23259;DHT22;11798;51.528;7.240;2023-02-14T10:56:23;10.10;99.90
23259;DHT22;11798;51.528;7.240;2023-02-14T10:58:51;10.10;99.90
23259;DHT22;11798;51.528;7.240;2023-02-14T11:01:18;10.10;99.90
23259;DHT22;11798;51.528;7.240;2023-02-14T11:03:54;10.30;99.90
23259;DHT22;11798;51.528;7.240;2023-02-14T11:06:22;10.30;99.90
23259;DHT22;11798;51.528;7.240;2023-02-14T11:08:48;10.40;99.90
23259;DHT22;11798;51.528;7.240;2023-02-14T11:11:25;10.50;99.90
23259;DHT22;11798;51.528;7.240;2023-02-14T11:13:52;10.60;99.90
23259;DHT22;11798;51.528;7.240;2023-02-14T11:16:28;10.70;99.90
23259;DHT22;11798;51.528;7.240;2023-02-14T11:21:40;10.80;99.90
23259;DHT22;11798;51.528;7.240;2023-02-14T11:26:47;10.90;99.90
23259;DHT22;11798;51.528;7.240;2023-02-14T11:29:17;11.00;99.90
23259;DHT22;11798;51.528;7.240;2023-02-14T11:31:45;11.00;99.90
23259;DHT22;11798;51.528;7.240;2023-02-14T11:34:35;11.00;99.90
23259;DHT22;11798;51.528;7.240;2023-02-14T11:37:03;11.00;99.90
23259;DHT22;11798;51.528;7.240;2023-02-14T11:39:39;11.10;99.90
23259;DHT22;11798;51.528;7.240;2023-02-14T11:42:05;11.20;99.90
23259;DHT22;11798;51.528;7.240;2023-02-14T11:44:32;11.30;99.90
23259;DHT22;11798;51.528;7.240;2023-02-14T11:47:28;11.30;99.90
23259;DHT22;11798;51.528;7.240;2023-02-14T11:52:25;11.40;99.90
23259;DHT22;11798;51.528;7.240;2023-02-14T11:54:56;11.40;99.90
23259;DHT22;11798;51.528;7.240;2023-02-14T11:57:34;11.40;99.90
23259;DHT22;11798;51.528;7.240;2023-02-14T12:00:10;11.60;99.90
23259;DHT22;11798;51.528;7.240;2023-02-14T12:02:44;11.60;99.90
23259;DHT22;11798;51.528;7.240;2023-02-14T12:05:30;11.60;99.90
23259;DHT22;11798;51.528;7.240;2023-02-14T12:08:00;11.70;99.90
23259;DHT22;11798;51.528;7.240;2023-02-14T12:10:28;11.80;99.90
23259;DHT22;11798;51.528;7.240;2023-02-14T12:26:59;11.90;99.90
23259;DHT22;11798;51.528;7.240;2023-02-14T12:29:36;11.90;99.90
23259;DHT22;11798;51.528;7.240;2023-02-14T12:32:21;11.90;99.90
23259;DHT22;11798;51.528;7.240;2023-02-14T12:34:48;12.00;99.90
23259;DHT22;11798;51.528;7.240;2023-02-14T12:49:31;12.10;99.90
23259;DHT22;11798;51.528;7.240;2023-02-14T12:54:35;12.20;99.90
23259;DHT22;11798;51.528;7.240;2023-02-14T12:57:35;12.20;99.90
23259;DHT22;11798;51.528;7.240;2023-02-14T13:00:26;12.20;99.90
23259;DHT22;11798;51.528;7.240;2023-02-14T13:11:35;12.20;99.90
23259;DHT22;11798;51.528;7.240;2023-02-14T13:17:03;12.20;99.90
23259;DHT22;11798;51.528;7.240;2023-02-14T13:22:26;12.20;99.90
23259;DHT22;11798;51.528;7.240;2023-02-14T13:24:57;12.20;99.90
23259;DHT22;11798;51.528;7.240;2023-02-14T13:27:27;12.20;99.90
23259;DHT22;11798;51.528;7.240;2023-02-14T13:29:58;12.20;99.90
23259;DHT22;11798;51.528;7.240;2023-02-14T13:32:29;12.20;99.90
23259;DHT22;11798;51.528;7.240;2023-02-14T13:34:57;12.20;99.90
23259;DHT22;11798;51.528;7.240;2023-02-14T13:37:24;12.20;99.90
23259;DHT22;11798;51.528;7.240;2023-02-14T13:39:54;12.30;99.90
23259;DHT22;11798;51.528;7.240;2023-02-14T13:50:39;12.30;99.90
23259;DHT22;11798;51.528;7.240;2023-02-14T13:53:23;12.30;99.90
23259;DHT22;11798;51.528;7.240;2023-02-14T13:55:53;12.30;99.90
23259;DHT22;11798;51.528;7.240;2023-02-14T13:58:20;12.40;99.90
23259;DHT22;11798;51.528;7.240;2023-02-14T14:00:53;12.40;99.90
23259;DHT22;11798;51.528;7.240;2023-02-14T14:06:06;12.40;99.90
23259;DHT22;11798;51.528;7.240;2023-02-14T14:08:37;12.50;99.90
23259;DHT22;11798;51.528;7.240;2023-02-14T14:14:00;12.40;99.90
23259;DHT22;11798;51.528;7.240;2023-02-14T14:16:33;12.50;99.90
23259;DHT22;11798;51.528;7.240;2023-02-14T14:22:07;12.50;99.90
23259;DHT22;11798;51.528;7.240;2023-02-14T14:24:38;12.50;99.90
23259;DHT22;11798;51.528;7.240;2023-02-14T14:27:13;12.50;99.90
23259;DHT22;11798;51.528;7.240;2023-02-14T14:30:14;12.50;99.90
23259;DHT22;11798;51.528;7.240;2023-02-14T14:32:42;12.50;99.90
23259;DHT22;11798;51.528;7.240;2023-02-14T14:40:30;12.60;99.90
23259;DHT22;11798;51.528;7.240;2023-02-14T14:43:13;12.60;99.90
23259;DHT22;11798;51.528;7.240;2023-02-14T14:45:39;12.50;99.90
23259;DHT22;11798;51.528;7.240;2023-02-14T14:48:33;12.50;99.90
23259;DHT22;11798;51.528;7.240;2023-02-14T14:51:02;12.50;99.90
23259;DHT22;11798;51.528;7.240;2023-02-14T14:53:56;12.50;99.90
23259;DHT22;11798;51.528;7.240;2023-02-14T14:56:25;12.40;99.90
23259;DHT22;11798;51.528;7.240;2023-02-14T14:58:52;12.50;99.90
23259;DHT22;11798;51.528;7.240;2023-02-14T15:01:35;12.60;99.90
23259;DHT22;11798;51.528;7.240;2023-02-14T15:04:19;12.60;99.90
23259;DHT22;11798;51.528;7.240;2023-02-14T15:06:49;12.50;99.90
23259;DHT22;11798;51.528;7.240;2023-02-14T15:09:20;12.50;99.90
23259;DHT22;11798;51.528;7.240;2023-02-14T15:11:48;12.50;99.90
23259;DHT22;11798;51.528;7.240;2023-02-14T15:14:39;12.50;99.90
23259;DHT22;11798;51.528;7.240;2023-02-14T15:17:13;12.60;99.90
23259;DHT22;11798;51.528;7.240;2023-02-14T15:19:44;12.60;99.90
23259;DHT22;11798;51.528;7.240;2023-02-14T15:24:46;12.70;99.90
23259;DHT22;11798;51.528;7.240;2023-02-14T15:27:15;12.70;99.90
23259;DHT22;11798;51.528;7.240;2023-02-14T15:29:58;12.70;99.90
23259;DHT22;11798;51.528;7.240;2023-02-14T15:32:26;12.80;99.90
23259;DHT22;11798;51.528;7.240;2023-02-14T15:34:54;12.80;99.90
23259;DHT22;11798;51.528;7.240;2023-02-14T15:37:21;12.80;99.90
23259;DHT22;11798;51.528;7.240;2023-02-14T15:39:50;12.80;99.90
23259;DHT22;11798;51.528;7.240;2023-02-14T15:42:29;12.90;99.90
23259;DHT22;11798;51.528;7.240;2023-02-14T15:45:22;12.90;99.90
23259;DHT22;11798;51.528;7.240;2023-02-14T15:48:01;12.90;99.90
23259;DHT22;11798;51.528;7.240;2023-02-14T15:50:33;12.80;99.90
23259;DHT22;11798;51.528;7.240;2023-02-14T15:53:07;12.80;99.90
23259;DHT22;11798;51.528;7.240;2023-02-14T15:55:34;12.70;99.90
23259;DHT22;11798;51.528;7.240;2023-02-14T15:58:04;12.60;99.90
23259;DHT22;11798;51.528;7.240;2023-02-14T16:00:30;12.60;99.90
23259;DHT22;11798;51.528;7.240;2023-02-14T16:03:02;12.50;99.90
23259;DHT22;11798;51.528;7.240;2023-02-14T16:05:29;12.40;99.90
23259;DHT22;11798;51.528;7.240;2023-02-14T16:08:06;12.30;99.90
23259;DHT22;11798;51.528;7.240;2023-02-14T16:11:04;12.20;99.90
23259;DHT22;11798;51.528;7.240;2023-02-14T16:13:35;12.20;99.90
23259;DHT22;11798;51.528;7.240;2023-02-14T16:16:06;12.10;99.90
23259;DHT22;11798;51.528;7.240;2023-02-14T16:18:37;12.00;99.90
23259;DHT22;11798;51.528;7.240;2023-02-14T16:23:36;11.70;99.90
23259;DHT22;11798;51.528;7.240;2023-02-14T16:26:04;11.70;99.90
23259;DHT22;11798;51.528;7.240;2023-02-14T16:28:31;11.60;99.90
23259;DHT22;11798;51.528;7.240;2023-02-14T16:30:59;11.50;99.90
23259;DHT22;11798;51.528;7.240;2023-02-14T16:33:29;11.40;99.90
23259;DHT22;11798;51.528;7.240;2023-02-14T16:38:39;11.20;99.90
23259;DHT22;11798;51.528;7.240;2023-02-14T16:41:06;11.00;99.90
23259;DHT22;11798;51.528;7.240;2023-02-14T16:43:37;10.90;99.90
23259;DHT22;11798;51.528;7.240;2023-02-14T16:46:03;10.80;99.90
23259;DHT22;11798;51.528;7.240;2023-02-14T16:48:28;10.70;99.90
23259;DHT22;11798;51.528;7.240;2023-02-14T16:50:54;10.60;99.90
23259;DHT22;11798;51.528;7.240;2023-02-14T16:53:25;10.50;99.90
23259;DHT22;11798;51.528;7.240;2023-02-14T16:55:53;10.40;99.90
23259;DHT22;11798;51.528;7.240;2023-02-14T16:58:22;10.30;99.90
23259;DHT22;11798;51.528;7.240;2023-02-14T17:00:48;10.10;99.90
23259;DHT22;11798;51.528;7.240;2023-02-14T17:03:14;10.00;99.90
23259;DHT22;11798;51.528;7.240;2023-02-14T17:05:40;9.90;99.90
23259;DHT22;11798;51.528;7.240;2023-02-14T17:08:09;9.90;99.90
23259;DHT22;11798;51.528;7.240;2023-02-14T17:10:36;9.70;99.90
23259;DHT22;11798;51.528;7.240;2023-02-14T17:13:02;9.50;99.90
23259;DHT22;11798;51.528;7.240;2023-02-14T17:15:29;9.30;99.90
23259;DHT22;11798;51.528;7.240;2023-02-14T17:17:59;9.20;99.90
23259;DHT22;11798;51.528;7.240;2023-02-14T17:20:28;9.20;99.90
23259;DHT22;11798;51.528;7.240;2023-02-14T17:22:54;9.10;99.90
23259;DHT22;11798;51.528;7.240;2023-02-14T17:25:21;9.10;99.90
23259;DHT22;11798;51.528;7.240;2023-02-14T17:27:46;9.00;99.90
23259;DHT22;11798;51.528;7.240;2023-02-14T17:30:13;8.90;99.90
23259;DHT22;11798;51.528;7.240;2023-02-14T17:32:39;8.80;99.90
23259;DHT22;11798;51.528;7.240;2023-02-14T17:35:06;8.70;99.90
23259;DHT22;11798;51.528;7.240;2023-02-14T17:37:34;8.70;99.90
23259;DHT22;11798;51.528;7.240;2023-02-14T17:40:00;8.60;99.90
23259;DHT22;11798;51.528;7.240;2023-02-14T17:42:26;8.50;99.90
23259;DHT22;11798;51.528;7.240;2023-02-14T17:44:52;8.40;99.90
23259;DHT22;11798;51.528;7.240;2023-02-14T17:47:18;8.30;99.90
23259;DHT22;11798;51.528;7.240;2023-02-14T17:49:44;8.20;99.90
23259;DHT22;11798;51.528;7.240;2023-02-14T17:52:13;8.10;99.90
23259;DHT22;11798;51.528;7.240;2023-02-14T17:54:40;8.10;99.90
23259;DHT22;11798;51.528;7.240;2023-02-14T17:57:05;8.00;99.90
23259;DHT22;11798;51.528;7.240;2023-02-14T17:59:32;7.90;99.90
23259;DHT22;11798;51.528;7.240;2023-02-14T18:01:58;7.90;99.90
23259;DHT22;11798;51.528;7.240;2023-02-14T18:04:24;7.70;99.90
23259;DHT22;11798;51.528;7.240;2023-02-14T18:06:49;7.70;99.90
23259;DHT22;11798;51.528;7.240;2023-02-14T18:09:16;7.60;99.90
23259;DHT22;11798;51.528;7.240;2023-02-14T18:11:43;7.50;99.90
23259;DHT22;11798;51.528;7.240;2023-02-14T18:14:10;7.40;99.90
23259;DHT22;11798;51.528;7.240;2023-02-14T18:16:39;7.20;99.90
23259;DHT22;11798;51.528;7.240;2023-02-14T18:19:06;7.10;99.90
23259;DHT22;11798;51.528;7.240;2023-02-14T18:21:34;7.10;99.90
23259;DHT22;11798;51.528;7.240;2023-02-14T18:24:04;7.10;99.90
23259;DHT22;11798;51.528;7.240;2023-02-14T18:26:30;7.00;99.90
23259;DHT22;11798;51.528;7.240;2023-02-14T18:28:56;6.90;99.90
23259;DHT22;11798;51.528;7.240;2023-02-14T18:31:22;6.90;99.90
23259;DHT22;11798;51.528;7.240;2023-02-14T18:33:49;6.90;99.90
23259;DHT22;11798;51.528;7.240;2023-02-14T18:36:20;6.90;99.90
23259;DHT22;11798;51.528;7.240;2023-02-14T18:38:48;6.80;99.90
23259;DHT22;11798;51.528;7.240;2023-02-14T18:41:16;6.80;99.90
23259;DHT22;11798;51.528;7.240;2023-02-14T18:43:43;6.70;99.90
23259;DHT22;11798;51.528;7.240;2023-02-14T18:46:18;6.60;99.90
23259;DHT22;11798;51.528;7.240;2023-02-14T18:48:44;6.60;99.90
23259;DHT22;11798;51.528;7.240;2023-02-14T18:51:31;6.60;99.90
23259;DHT22;11798;51.528;7.240;2023-02-14T18:53:59;6.50;99.90
23259;DHT22;11798;51.528;7.240;2023-02-14T18:56:36;6.40;99.90
23259;DHT22;11798;51.528;7.240;2023-02-14T18:59:04;6.40;99.90